Station Historical Data
Daily Summary for October 29, 2017 Units:  English    Metric   Both
« Previous Day
Next Day »
Daily Weekly Monthly Yearly Custom
  High: Low: Average:
Temperature: 43.9 °F 40.7 °F 42.3 °F
Dew Point: 41.3 °F 37.4 °F 39.2 °F
Humidity: 92% 82% 89%
Wind Speed: 5.0mph 0.0mph 0.7mph
Wind Gust: 14.0mph - -
Wind- - WNW
Pressure: 29.89 in 29.48 in -
Precipitation: 0.00 in    
Historical Graphs
 
 
Tabular Data for October 29, 2017
Time Temperature Dew Point Pressure Wind Wind Speed Wind Gust Humidity Rainfall Rate (Hourly)
00:04 42.0 °F 38.4 °F 29.88 in Calm     87% 0.00 in
00:09 41.9 °F 38.0 °F 29.88 in Calm     86% 0.00 in
00:14 42.1 °F 38.2 °F 29.89 in Calm     86% 0.00 in
00:19 42.1 °F 38.2 °F 29.88 in Calm     86% 0.00 in
00:24 42.1 °F 38.2 °F 29.88 in Calm     86% 0.00 in
00:29 41.9 °F 38.0 °F 29.89 in Calm     86% 0.00 in
00:34 42.1 °F 38.5 °F 29.89 in Calm     87% 0.00 in
00:39 42.1 °F 38.5 °F 29.88 in Calm     87% 0.00 in
00:44 42.1 °F 38.5 °F 29.88 in Calm     87% 0.00 in
00:49 41.9 °F 38.3 °F 29.88 in Calm     87% 0.00 in
00:54 42.0 °F 38.4 °F 29.88 in Calm     87% 0.00 in
00:59 42.0 °F 38.4 °F 29.88 in Calm     87% 0.00 in
01:05 42.0 °F 38.4 °F 29.88 in Calm     87% 0.00 in
01:10 42.1 °F 38.5 °F 29.87 in Calm     87% 0.00 in
01:15 42.2 °F 38.9 °F 29.87 in Calm     88% 0.00 in
01:20 42.3 °F 39.0 °F 29.87 in Calm     88% 0.00 in
01:25 42.3 °F 39.0 °F 29.87 in Calm     88% 0.00 in
01:30 42.3 °F 39.0 °F 29.88 in Calm     88% 0.00 in
01:35 42.4 °F 39.1 °F 29.87 in Calm     88% 0.00 in
01:40 42.5 °F 39.2 °F 29.87 in Calm     88% 0.00 in
01:45 42.4 °F 39.1 °F 29.87 in Calm     88% 0.00 in
01:50 42.4 °F 39.1 °F 29.87 in Calm     88% 0.00 in
01:55 42.4 °F 39.1 °F 29.87 in Calm     88% 0.00 in
02:00 42.5 °F 39.2 °F 29.87 in Calm     88% 0.00 in
02:05 42.4 °F 39.1 °F 29.88 in Calm     88% 0.00 in
02:10 42.3 °F 39.0 °F 29.88 in Calm     88% 0.00 in
02:15 42.0 °F 38.7 °F 29.87 in Calm     88% 0.00 in
02:20 41.8 °F 38.5 °F 29.87 in Calm     88% 0.00 in
02:25 41.5 °F 37.9 °F 29.87 in Calm     87% 0.00 in
02:30 41.2 °F 37.6 °F 29.87 in Calm     87% 0.00 in
02:35 41.3 °F 37.7 °F 29.87 in Calm     87% 0.00 in
02:40 41.3 °F 37.7 °F 29.87 in Calm     87% 0.00 in
02:45 41.3 °F 37.4 °F 29.87 in Calm     86% 0.00 in
02:50 41.3 °F 37.4 °F 29.86 in Calm     86% 0.00 in
02:55 41.4 °F 37.5 °F 29.86 in Calm     86% 0.00 in
03:00 41.5 °F 37.6 °F 29.86 in Calm     86% 0.00 in
03:05 41.5 °F 37.6 °F 29.85 in Calm     86% 0.00 in
03:10 41.5 °F 37.6 °F 29.84 in Calm     86% 0.00 in
03:15 41.6 °F 37.7 °F 29.83 in ENE 1.0 mph 4.0 mph 86% 0.00 in
03:20 41.6 °F 37.7 °F 29.84 in Calm   3.0 mph 86% 0.00 in
03:25 41.6 °F 37.7 °F 29.85 in ENE 1.0 mph 3.0 mph 86% 0.00 in
03:30 41.6 °F 37.4 °F 29.86 in Calm   3.0 mph 85% 0.00 in
03:35 41.7 °F 37.5 °F 29.86 in Calm     85% 0.00 in
03:40 41.8 °F 37.6 °F 29.86 in Calm     85% 0.00 in
03:45 41.8 °F 37.6 °F 29.86 in Calm     85% 0.00 in
03:50 41.8 °F 37.6 °F 29.85 in Calm     85% 0.00 in
03:54 42.0 °F 37.8 °F 29.85 in Calm     85% 0.00 in
04:00 42.0 °F 38.1 °F 29.85 in Calm     86% 0.00 in
04:05 42.1 °F 38.2 °F 29.85 in Calm     86% 0.00 in
04:10 42.2 °F 38.3 °F 29.85 in Calm     86% 0.00 in
04:15 42.2 °F 38.6 °F 29.85 in Calm     87% 0.00 in
04:20 42.2 °F 38.6 °F 29.85 in Calm     87% 0.00 in
04:25 42.2 °F 38.6 °F 29.85 in Calm     87% 0.00 in
04:30 42.2 °F 38.6 °F 29.85 in Calm     87% 0.00 in
04:35 42.3 °F 38.7 °F 29.84 in Calm     87% 0.00 in
04:40 42.4 °F 39.1 °F 29.84 in Calm     88% 0.00 in
04:45 42.3 °F 38.7 °F 29.84 in Calm     87% 0.00 in
04:49 42.2 °F 38.6 °F 29.84 in Calm     87% 0.00 in
04:55 42.1 °F 38.5 °F 29.84 in Calm     87% 0.00 in
05:00 42.1 °F 38.5 °F 29.85 in Calm     87% 0.00 in
05:05 42.2 °F 38.6 °F 29.84 in Calm     87% 0.00 in
05:10 42.2 °F 38.6 °F 29.84 in Calm     87% 0.00 in
05:15 42.2 °F 38.6 °F 29.85 in Calm     87% 0.00 in
05:20 42.2 °F 38.6 °F 29.84 in Calm     87% 0.00 in
05:25 42.1 °F 38.5 °F 29.84 in Calm     87% 0.01 in
05:30 42.0 °F 38.4 °F 29.84 in Calm     87% 0.01 in
05:34 42.0 °F 38.4 °F 29.84 in Calm   2.0 mph 87% 0.01 in
05:40 42.0 °F 38.4 °F 29.84 in Calm   2.0 mph 87% 0.02 in
05:45 41.9 °F 38.3 °F 29.84 in Calm     87% 0.02 in
05:50 41.9 °F 38.3 °F 29.84 in Calm     87% 0.03 in
05:55 41.7 °F 38.1 °F 29.84 in Calm     87% 0.03 in
06:00 41.6 °F 38.0 °F 29.84 in Calm     87% 0.03 in
06:04 41.6 °F 38.3 °F 29.84 in Calm     88% 0.03 in
06:09 41.7 °F 38.4 °F 29.84 in Calm     88% 0.04 in
06:20 41.6 °F 38.3 °F 29.84 in Calm     88% 0.04 in
06:25 41.7 °F 38.4 °F 29.84 in Calm     88% 0.04 in
06:30 41.6 °F 38.6 °F 29.84 in Calm     89% 0.04 in
06:35 41.5 °F 38.5 °F 29.84 in Calm     89% 0.04 in
06:39 41.5 °F 38.5 °F 29.84 in Calm     89% 0.03 in
06:45 41.4 °F 38.4 °F 29.84 in Calm     89% 0.04 in
06:50 41.3 °F 38.3 °F 29.84 in Calm     89% 0.03 in
06:55 41.3 °F 38.3 °F 29.84 in Calm     89% 0.03 in
07:00 41.2 °F 38.2 °F 29.84 in Calm     89% 0.03 in
07:04 41.2 °F 38.2 °F 29.84 in Calm     89% 0.04 in
07:09 41.2 °F 38.2 °F 29.84 in Calm     89% 0.03 in
07:14 41.2 °F 38.2 °F 29.84 in Calm     89% 0.03 in
07:20 41.3 °F 38.6 °F 29.84 in Calm     90% 0.04 in
07:25 41.3 °F 38.6 °F 29.84 in Calm     90% 0.03 in
07:30 41.3 °F 38.6 °F 29.83 in Calm     90% 0.04 in
07:35 41.3 °F 38.6 °F 29.83 in Calm     90% 0.05 in
07:40 41.3 °F 38.6 °F 29.83 in Calm     90% 0.06 in
07:44 41.3 °F 38.6 °F 29.83 in Calm   3.0 mph 90% 0.05 in
07:49 41.2 °F 38.5 °F 29.83 in Calm   4.0 mph 90% 0.06 in
07:55 41.2 °F 38.5 °F 29.83 in Calm   4.0 mph 90% 0.06 in
08:00 41.1 °F 38.4 °F 29.83 in Calm   1.0 mph 90% 0.06 in
08:04 41.1 °F 38.4 °F 29.83 in Calm     90% 0.06 in
08:09 41.1 °F 38.4 °F 29.84 in Calm   2.0 mph 90% 0.06 in
08:14 41.0 °F 38.3 °F 29.84 in Calm   2.0 mph 90% 0.06 in
08:19 41.0 °F 38.3 °F 29.83 in Calm   2.0 mph 90% 0.05 in
08:24 41.0 °F 38.3 °F 29.83 in Calm   2.0 mph 90% 0.05 in
08:29 40.9 °F 38.2 °F 29.83 in Calm   1.0 mph 90% 0.04 in
08:35 40.7 °F 38.0 °F 29.83 in Calm     90% 0.03 in
08:40 40.8 °F 38.1 °F 29.83 in Calm     90% 0.02 in
08:45 40.9 °F 38.5 °F 29.83 in Calm     91% 0.02 in
08:50 40.8 °F 38.1 °F 29.82 in Calm   3.0 mph 90% 0.01 in
08:54 40.9 °F 38.2 °F 29.83 in Calm   3.0 mph 90% 0.01 in
08:59 40.8 °F 38.4 °F 29.83 in Calm   2.0 mph 91% 0.01 in
09:05 40.9 °F 38.5 °F 29.83 in Calm     91% 0.00 in
09:09 40.9 °F 38.5 °F 29.83 in Calm     91% 0.01 in
09:14 40.9 °F 38.2 °F 29.83 in Calm     90% 0.01 in
09:19 40.9 °F 38.2 °F 29.82 in Calm   5.0 mph 90% 0.01 in
09:24 40.9 °F 38.2 °F 29.83 in NE 1.0 mph 5.0 mph 90% 0.02 in
09:29 40.9 °F 38.2 °F 29.82 in NE 1.0 mph 4.0 mph 90% 0.02 in
09:34 40.9 °F 38.2 °F 29.82 in Calm   3.0 mph 90% 0.02 in
09:40 41.1 °F 38.7 °F 29.83 in Calm     91% 0.03 in
09:45 41.1 °F 38.7 °F 29.82 in Calm   2.0 mph 91% 0.03 in
09:50 41.1 °F 38.7 °F 29.82 in NNE 1.0 mph 4.0 mph 91% 0.03 in
09:55 41.2 °F 38.8 °F 29.82 in Calm   1.0 mph 91% 0.04 in
09:59 41.1 °F 38.7 °F 29.81 in NNE 1.0 mph 3.0 mph 91% 0.04 in
10:04 41.2 °F 38.8 °F 29.80 in NNE 1.0 mph 3.0 mph 91% 0.04 in
10:10 41.4 °F 39.0 °F 29.79 in Calm   2.0 mph 91% 0.04 in
10:15 41.4 °F 39.0 °F 29.79 in Calm   3.0 mph 91% 0.04 in
10:19 41.3 °F 38.9 °F 29.79 in Calm   5.0 mph 91% 0.04 in
10:24 41.4 °F 39.0 °F 29.80 in North 1.0 mph 5.0 mph 91% 0.03 in
10:29 41.4 °F 39.0 °F 29.80 in North 1.0 mph 5.0 mph 91% 0.04 in
10:34 41.5 °F 39.1 °F 29.80 in NNW 1.0 mph 4.0 mph 91% 0.04 in
10:39 41.6 °F 39.2 °F 29.79 in Calm   5.0 mph 91% 0.03 in
10:44 41.8 °F 39.4 °F 29.79 in NE 2.0 mph 9.0 mph 91% 0.04 in
10:49 41.7 °F 39.3 °F 29.77 in NNE 1.0 mph 5.0 mph 91% 0.04 in
10:54 41.6 °F 39.2 °F 29.77 in Calm   9.0 mph 91% 0.04 in
11:00 41.6 °F 39.2 °F 29.78 in NE 3.0 mph 8.0 mph 91% 0.04 in
11:04 41.5 °F 39.1 °F 29.79 in NE 2.0 mph 9.0 mph 91% 0.04 in
11:09 41.4 °F 39.0 °F 29.79 in NNE 2.0 mph 9.0 mph 91% 0.03 in
11:14 41.6 °F 39.2 °F 29.79 in North 1.0 mph 6.0 mph 91% 0.03 in
11:19 41.8 °F 39.4 °F 29.78 in NNW 1.0 mph 5.0 mph 91% 0.03 in
11:25 42.0 °F 39.6 °F 29.78 in Calm   5.0 mph 91% 0.03 in
11:29 42.1 °F 39.7 °F 29.77 in North 1.0 mph 2.0 mph 91% 0.02 in
11:34 42.2 °F 39.8 °F 29.76 in Calm   3.0 mph 91% 0.02 in
11:39 42.2 °F 39.8 °F 29.76 in Calm   3.0 mph 91% 0.02 in
11:44 42.3 °F 39.9 °F 29.77 in Calm   2.0 mph 91% 0.01 in
11:49 42.2 °F 39.8 °F 29.79 in Calm     91% 0.01 in
11:54 42.2 °F 39.8 °F 29.79 in NNW 2.0 mph 4.0 mph 91% 0.00 in
11:59 41.9 °F 39.5 °F 29.78 in Calm   4.0 mph 91% 0.00 in
12:04 41.9 °F 39.5 °F 29.78 in Calm   4.0 mph 91% 0.00 in
12:09 42.1 °F 39.7 °F 29.77 in Calm   4.0 mph 91% 0.00 in
12:14 42.3 °F 39.9 °F 29.76 in Calm   3.0 mph 91% 0.00 in
12:19 42.4 °F 40.0 °F 29.76 in Calm   3.0 mph 91% 0.00 in
12:24 42.5 °F 40.1 °F 29.76 in Calm   2.0 mph 91% 0.01 in
12:30 42.4 °F 40.0 °F 29.76 in Calm   4.0 mph 91% 0.01 in
12:34 42.3 °F 39.9 °F 29.75 in Calm   5.0 mph 91% 0.01 in
12:39 42.3 °F 39.9 °F 29.75 in North 1.0 mph 5.0 mph 91% 0.01 in
12:44 42.4 °F 40.0 °F 29.75 in Calm   4.0 mph 91% 0.01 in
12:49 42.3 °F 39.9 °F 29.76 in NNE 2.0 mph 3.0 mph 91% 0.01 in
12:54 42.3 °F 39.9 °F 29.76 in NNE 3.0 mph 4.0 mph 91% 0.01 in
12:59 42.3 °F 39.9 °F 29.75 in Calm   3.0 mph 91% 0.01 in
13:04 42.5 °F 40.1 °F 29.76 in Calm     91% 0.01 in
13:09 42.6 °F 40.2 °F 29.76 in Calm   3.0 mph 91% 0.01 in
13:14 42.7 °F 40.3 °F 29.75 in Calm   3.0 mph 91% 0.01 in
13:19 42.9 °F 40.5 °F 29.75 in Calm   3.0 mph 91% 0.02 in
13:24 42.9 °F 40.5 °F 29.74 in Calm   2.0 mph 91% 0.01 in
13:29 43.0 °F 40.6 °F 29.74 in Calm   2.0 mph 91% 0.02 in
13:35 43.1 °F 40.7 °F 29.73 in Calm   2.0 mph 91% 0.03 in
13:39 43.1 °F 40.7 °F 29.73 in Calm   2.0 mph 91% 0.03 in
13:44 43.0 °F 40.6 °F 29.73 in Calm   3.0 mph 91% 0.03 in
13:49 43.1 °F 40.7 °F 29.73 in Calm   2.0 mph 91% 0.04 in
13:54 42.9 °F 40.5 °F 29.73 in Calm   1.0 mph 91% 0.04 in
13:59 42.8 °F 40.4 °F 29.73 in Calm   4.0 mph 91% 0.04 in
14:04 42.9 °F 40.5 °F 29.72 in Calm   4.0 mph 91% 0.05 in
14:09 43.0 °F 40.6 °F 29.71 in Calm   3.0 mph 91% 0.05 in
14:14 43.2 °F 40.8 °F 29.71 in Calm   2.0 mph 91% 0.06 in
14:19 42.9 °F 40.5 °F 29.71 in NNW 1.0 mph 5.0 mph 91% 0.05 in
14:24 42.8 °F 40.4 °F 29.71 in NNW 1.0 mph 5.0 mph 91% 0.05 in
14:29 43.0 °F 40.6 °F 29.70 in NNW 1.0 mph 5.0 mph 91% 0.05 in
14:34 43.0 °F 40.6 °F 29.70 in NNW 2.0 mph 7.0 mph 91% 0.04 in
14:39 43.3 °F 41.1 °F 29.69 in NNW 2.0 mph 7.0 mph 92% 0.04 in
14:44 43.8 °F 41.3 °F 29.69 in NNW 4.0 mph 4.0 mph 91% 0.04 in
14:49 43.8 °F 41.3 °F 29.69 in NNW 2.0 mph 5.0 mph 91% 0.03 in
14:54 43.5 °F 41.0 °F 29.69 in NNW 5.0 mph 5.0 mph 91% 0.03 in
14:59 43.5 °F 41.0 °F 29.69 in NNW 1.0 mph 5.0 mph 91% 0.03 in
15:04 43.4 °F 40.9 °F 29.69 in Calm   8.0 mph 91% 0.02 in
15:09 43.1 °F 40.7 °F 29.69 in Calm   8.0 mph 91% 0.02 in
15:14 43.1 °F 40.7 °F 29.69 in Calm   5.0 mph 91% 0.01 in
15:19 43.1 °F 40.7 °F 29.70 in NW 3.0 mph 6.0 mph 91% 0.01 in
15:24 43.1 °F 40.7 °F 29.70 in NNW 2.0 mph 6.0 mph 91% 0.01 in
15:29 43.3 °F 40.8 °F 29.71 in NNW 1.0 mph 5.0 mph 91% 0.00 in
15:34 43.2 °F 40.5 °F 29.71 in NNW 1.0 mph 4.0 mph 90% 0.00 in
15:39 43.0 °F 40.3 °F 29.71 in NNW 1.0 mph 4.0 mph 90% 0.00 in
15:44 43.1 °F 40.7 °F 29.70 in Calm   4.0 mph 91% 0.00 in
15:49 43.1 °F 40.4 °F 29.69 in Calm   5.0 mph 90% 0.00 in
15:54 43.3 °F 40.6 °F 29.69 in Calm   3.0 mph 90% 0.00 in
15:59 43.3 °F 40.6 °F 29.69 in NNW 1.0 mph 5.0 mph 90% 0.00 in
16:04 43.2 °F 40.5 °F 29.69 in NNW 1.0 mph 5.0 mph 90% 0.01 in
16:09 43.3 °F 40.6 °F 29.69 in Calm   3.0 mph 90% 0.01 in
16:14 43.2 °F 40.5 °F 29.68 in NNW 3.0 mph 6.0 mph 90% 0.01 in
16:19 43.1 °F 40.4 °F 29.68 in NW 3.0 mph 5.0 mph 90% 0.01 in
16:24 43.0 °F 40.3 °F 29.67 in North 2.0 mph 4.0 mph 90% 0.01 in
16:29 43.0 °F 40.3 °F 29.68 in North 5.0 mph 5.0 mph 90% 0.01 in
16:34 42.8 °F 40.1 °F 29.68 in NNW 2.0 mph 6.0 mph 90% 0.01 in
16:39 42.8 °F 40.1 °F 29.68 in NNW 2.0 mph 6.0 mph 90% 0.01 in
16:44 42.7 °F 40.0 °F 29.68 in NNW 2.0 mph 6.0 mph 90% 0.01 in
16:49 42.7 °F 40.0 °F 29.67 in NNW 1.0 mph 6.0 mph 90% 0.01 in
16:54 42.7 °F 40.0 °F 29.67 in Calm   5.0 mph 90% 0.01 in
16:59 42.7 °F 40.0 °F 29.67 in Calm   3.0 mph 90% 0.01 in
17:04 42.8 °F 40.1 °F 29.67 in NNW 1.0 mph 6.0 mph 90% 0.00 in
17:09 42.8 °F 40.1 °F 29.68 in NW 1.0 mph 6.0 mph 90% 0.01 in
17:14 42.8 °F 40.1 °F 29.68 in North 3.0 mph 4.0 mph 90% 0.01 in
17:19 42.7 °F 40.0 °F 29.67 in NNW 1.0 mph 7.0 mph 90% 0.01 in
17:24 42.7 °F 40.0 °F 29.67 in NW 2.0 mph 5.0 mph 90% 0.01 in
17:29 42.6 °F 39.9 °F 29.67 in NNE 1.0 mph 5.0 mph 90% 0.01 in
17:34 42.6 °F 39.9 °F 29.67 in North 4.0 mph 4.0 mph 90% 0.01 in
17:44 42.7 °F 40.0 °F 29.67 in NNW 1.0 mph 5.0 mph 90% 0.01 in
17:49 42.7 °F 40.0 °F 29.67 in Calm   4.0 mph 90% 0.01 in
17:54 42.7 °F 40.0 °F 29.67 in NNW 1.0 mph 4.0 mph 90% 0.01 in
17:59 42.6 °F 39.9 °F 29.66 in NNW 1.0 mph 5.0 mph 90% 0.01 in
18:04 42.6 °F 39.9 °F 29.66 in Calm   2.0 mph 90% 0.01 in
18:09 42.5 °F 39.8 °F 29.66 in Calm   5.0 mph 90% 0.00 in
18:14 42.5 °F 39.8 °F 29.66 in NNW 1.0 mph 5.0 mph 90% 0.00 in
18:19 42.5 °F 39.8 °F 29.66 in NNW 1.0 mph 5.0 mph 90% 0.00 in
18:24 42.5 °F 39.8 °F 29.66 in NW 1.0 mph 3.0 mph 90% 0.00 in
18:29 42.5 °F 39.8 °F 29.65 in NW 1.0 mph 4.0 mph 90% 0.00 in
18:34 42.5 °F 39.8 °F 29.66 in Calm   4.0 mph 90% 0.00 in
18:39 42.5 °F 39.8 °F 29.66 in Calm   1.0 mph 90% 0.00 in
18:44 42.4 °F 39.7 °F 29.65 in NNW 3.0 mph 4.0 mph 90% 0.00 in
18:49 42.4 °F 39.7 °F 29.65 in Calm   4.0 mph 90% 0.00 in
18:54 42.5 °F 39.8 °F 29.65 in NNW 1.0 mph 4.0 mph 90% 0.00 in
18:59 42.5 °F 39.8 °F 29.65 in NW 1.0 mph 4.0 mph 90% 0.00 in
19:04 42.5 °F 39.8 °F 29.65 in NW 1.0 mph 4.0 mph 90% 0.00 in
19:09 42.5 °F 39.5 °F 29.64 in NNW 2.0 mph 6.0 mph 89% 0.00 in
19:14 42.5 °F 39.5 °F 29.64 in North 1.0 mph 5.0 mph 89% 0.00 in
19:19 42.5 °F 39.5 °F 29.64 in NNW 1.0 mph 8.0 mph 89% 0.00 in
19:24 42.4 °F 39.4 °F 29.63 in NW 5.0 mph 6.0 mph 89% 0.00 in
19:29 42.4 °F 39.4 °F 29.63 in NNW 2.0 mph 8.0 mph 89% 0.00 in
19:34 42.4 °F 39.4 °F 29.62 in NNW 3.0 mph 7.0 mph 89% 0.00 in
19:39 42.4 °F 39.4 °F 29.62 in NNW 2.0 mph 7.0 mph 89% 0.00 in
19:44 42.4 °F 39.4 °F 29.61 in NNW 4.0 mph 8.0 mph 89% 0.00 in
19:49 42.4 °F 39.4 °F 29.61 in NNW 2.0 mph 8.0 mph 89% 0.00 in
19:54 42.4 °F 39.4 °F 29.61 in NNW 2.0 mph 8.0 mph 89% 0.00 in
19:59 42.3 °F 39.3 °F 29.61 in North 1.0 mph 5.0 mph 89% 0.00 in
20:04 42.3 °F 39.3 °F 29.61 in Calm   3.0 mph 89% 0.00 in
20:09 42.3 °F 39.3 °F 29.61 in Calm   2.0 mph 89% 0.00 in
20:14 42.3 °F 39.3 °F 29.61 in NNW 1.0 mph 4.0 mph 89% 0.00 in
20:19 42.4 °F 39.4 °F 29.61 in Calm   2.0 mph 89% 0.00 in
20:24 42.5 °F 39.5 °F 29.60 in Calm   2.0 mph 89% 0.00 in
20:29 42.5 °F 39.5 °F 29.60 in Calm   2.0 mph 89% 0.00 in
20:34 42.5 °F 39.5 °F 29.60 in Calm   2.0 mph 89% 0.00 in
20:39 42.5 °F 39.5 °F 29.60 in NW 2.0 mph 3.0 mph 89% 0.00 in
20:44 42.6 °F 39.6 °F 29.60 in Calm   2.0 mph 89% 0.00 in
20:49 42.5 °F 39.5 °F 29.60 in Calm   1.0 mph 89% 0.00 in
20:54 42.5 °F 39.5 °F 29.59 in Calm     89% 0.00 in
20:59 42.6 °F 39.6 °F 29.59 in Calm   3.0 mph 89% 0.00 in
21:04 42.7 °F 39.7 °F 29.59 in Calm   5.0 mph 89% 0.00 in
21:09 42.7 °F 39.7 °F 29.58 in Calm   3.0 mph 89% 0.00 in
21:14 42.7 °F 39.4 °F 29.58 in NW 2.0 mph 3.0 mph 88% 0.00 in
21:19 42.8 °F 39.5 °F 29.58 in WNW 2.0 mph 5.0 mph 88% 0.00 in
21:24 42.8 °F 39.5 °F 29.57 in Calm   5.0 mph 88% 0.00 in
21:29 42.9 °F 39.6 °F 29.57 in NW 1.0 mph 5.0 mph 88% 0.00 in
21:34 42.9 °F 39.3 °F 29.57 in NW 2.0 mph 6.0 mph 87% 0.00 in
21:39 42.9 °F 39.3 °F 29.58 in NW 2.0 mph 6.0 mph 87% 0.00 in
21:44 42.9 °F 39.3 °F 29.57 in Calm   4.0 mph 87% 0.00 in
21:49 42.9 °F 39.0 °F 29.56 in Calm   5.0 mph 86% 0.00 in
21:54 43.0 °F 39.1 °F 29.55 in Calm   5.0 mph 86% 0.00 in
21:59 43.0 °F 39.1 °F 29.55 in Calm   6.0 mph 86% 0.00 in
22:04 43.1 °F 39.2 °F 29.55 in NW 2.0 mph 6.0 mph 86% 0.00 in
22:09 43.1 °F 38.9 °F 29.54 in NW 1.0 mph 5.0 mph 85% 0.00 in
22:14 43.1 °F 38.9 °F 29.53 in NW 1.0 mph 6.0 mph 85% 0.00 in
22:19 43.2 °F 39.0 °F 29.53 in NW 2.0 mph 8.0 mph 85% 0.00 in
22:24 43.2 °F 39.0 °F 29.53 in NW 2.0 mph 8.0 mph 85% 0.00 in
22:29 43.2 °F 39.0 °F 29.53 in NW 2.0 mph 7.0 mph 85% 0.00 in
22:34 43.3 °F 39.1 °F 29.52 in NW 2.0 mph 7.0 mph 85% 0.00 in
22:39 43.3 °F 39.1 °F 29.52 in Calm   6.0 mph 85% 0.00 in
22:44 43.3 °F 38.8 °F 29.52 in WNW 1.0 mph 5.0 mph 84% 0.00 in
22:49 43.3 °F 38.8 °F 29.51 in North 5.0 mph 6.0 mph 84% 0.00 in
22:54 43.4 °F 38.9 °F 29.50 in NW 5.0 mph 9.0 mph 84% 0.00 in
22:59 43.4 °F 38.9 °F 29.50 in NW 3.0 mph 11.0 mph 84% 0.00 in
23:04 43.5 °F 39.0 °F 29.51 in Calm   9.0 mph 84% 0.00 in
23:09 43.5 °F 39.0 °F 29.51 in NW 3.0 mph 10.0 mph 84% 0.00 in
23:19 43.6 °F 38.8 °F 29.51 in NW 4.0 mph 11.0 mph 83% 0.00 in
23:24 43.6 °F 38.8 °F 29.50 in NW 4.0 mph 11.0 mph 83% 0.00 in
23:29 43.7 °F 38.9 °F 29.50 in NW 3.0 mph 7.0 mph 83% 0.00 in
23:34 43.8 °F 39.0 °F 29.49 in NW 4.0 mph 10.0 mph 83% 0.00 in
23:39 43.8 °F 39.0 °F 29.49 in NNW 3.0 mph 10.0 mph 83% 0.00 in
23:44 43.8 °F 38.7 °F 29.49 in West 3.0 mph 9.0 mph 82% 0.00 in
23:49 43.9 °F 38.8 °F 29.49 in NW 3.0 mph 9.0 mph 82% 0.00 in
23:54 43.8 °F 38.7 °F 29.49 in NW 3.0 mph 14.0 mph 82% 0.00 in
23:59 43.8 °F 38.7 °F 29.48 in NW 3.0 mph 13.0 mph 82% 0.00 in
Buffalo, New York, USA
Compliments of Weather Underground - 2.5 mb